Time;durP1;ratioP1;P1;durP2;ratioP2;P2;SDS_P1;SDS_P2;PMS_P1;PMS_P2;Temp;Humidity;BMP_temperature;BMP_pressure;BME280_temperature;BME280_humidity;BME280_pressure;Samples;Min_cycle;Max_cycle;Signal;HPM_P1;HPM_P2
2022/07/02 00:02:25;;;;;;;;;;;;;;;13.27;100.00;102116.25;2613917;31;20455;-59
2022/07/02 00:04:54;;;;;;;;;;;;;;;13.29;100.00;102108.91;2612880;36;19950;-57
2022/07/02 00:07:22;;;;;;;;;;;;;;;13.25;100.00;102104.72;2613486;36;19950;-57
2022/07/02 00:09:53;;;;;;;;;;;;;;;13.33;100.00;102110.34;2612795;36;19951;-57
2022/07/02 00:12:22;;;;;;;;;;;;;;;13.33;100.00;102120.31;2609126;36;19981;-59
2022/07/02 00:14:52;;;;;;;;;;;;;;;13.31;100.00;102117.75;2614724;31;20367;-58
2022/07/02 00:17:20;;;;;;;;;;;;;;;13.24;100.00;102121.06;2613050;36;19975;-59
2022/07/02 00:19:49;;;;;;;;;;;;;;;13.23;100.00;102124.75;2611863;36;20451;-57
2022/07/02 00:22:17;;;;;;;;;;;;;;;13.19;100.00;102124.16;2613035;36;20345;-57
2022/07/02 00:24:46;;;;;;;;;;;;;;;13.09;100.00;102120.44;2613326;36;20331;-57
2022/07/02 00:27:18;;;;;;;;;;;;;;;13.08;100.00;102134.94;2613830;36;19946;-59
2022/07/02 00:29:50;;;;;;;;;;;;;;;12.99;100.00;102127.56;2613529;36;19958;-56
2022/07/02 00:32:19;;;;;;;;;;;;;;;12.90;100.00;102130.00;2614469;36;20396;-55
2022/07/02 00:34:47;;;;;;;;;;;;;;;12.99;100.00;102128.41;2613272;36;19946;-58
2022/07/02 00:37:16;;;;;;;;;;;;;;;13.01;100.00;102126.44;2613468;36;20444;-57
2022/07/02 00:39:44;;;;;;;;;;;;;;;12.90;100.00;102126.44;2612928;31;19970;-58
2022/07/02 00:42:13;;;;;;;;;;;;;;;12.88;100.00;102121.16;2611198;36;19950;-57
2022/07/02 00:44:44;;;;;;;;;;;;;;;12.83;100.00;102120.66;2613019;31;19969;-58
2022/07/02 00:47:12;;;;;;;;;;;;;;;12.82;100.00;102121.63;2613053;36;19977;-58
2022/07/02 00:49:40;;;;;;;;;;;;;;;12.75;100.00;102120.38;2612379;36;19970;-58
2022/07/02 00:52:09;;;;;;;;;;;;;;;12.73;100.00;102116.94;2612559;36;19955;-57
2022/07/02 00:54:38;;;;;;;;;;;;;;;12.71;100.00;102110.81;2614330;36;19957;-56
2022/07/02 00:57:07;;;;;;;;;;;;;;;12.66;100.00;102113.00;2614125;36;19953;-59
2022/07/02 00:59:35;;;;;;;;;;;;;;;12.58;100.00;102116.28;2613731;36;19951;-57
2022/07/02 01:02:06;;;;;;;;;;;;;;;12.60;100.00;102117.03;2613131;36;19947;-56
2022/07/02 01:04:35;;;;;;;;;;;;;;;12.50;100.00;102111.50;2614234;31;19954;-60
2022/07/02 01:07:04;;;;;;;;;;;;;;;12.40;100.00;102113.19;2611847;36;19947;-58
2022/07/02 01:12:17;;;;;;;;;;;;;;;12.49;100.00;102101.66;2613027;36;19947;-59
2022/07/02 01:14:47;;;;;;;;;;;;;;;12.45;100.00;102100.16;2613539;36;19951;-57
2022/07/02 01:17:18;;;;;;;;;;;;;;;12.42;100.00;102101.25;2613288;36;19946;-59
2022/07/02 01:19:46;;;;;;;;;;;;;;;12.37;100.00;102100.75;2614708;31;20336;-54
2022/07/02 01:22:18;;;;;;;;;;;;;;;12.38;100.00;102096.22;2613060;36;20386;-58
2022/07/02 01:24:47;;;;;;;;;;;;;;;12.42;100.00;102101.25;2613681;36;19982;-57
2022/07/02 01:27:15;;;;;;;;;;;;;;;12.36;100.00;102099.03;2614578;36;19946;-53
2022/07/02 01:29:43;;;;;;;;;;;;;;;12.29;100.00;102107.72;2611780;36;19951;-58
2022/07/02 01:32:12;;;;;;;;;;;;;;;12.27;100.00;102100.59;2614997;36;19997;-56
2022/07/02 01:34:41;;;;;;;;;;;;;;;12.27;100.00;102103.28;2612212;36;19946;-60
2022/07/02 01:37:10;;;;;;;;;;;;;;;12.21;100.00;102095.66;2613736;31;19946;-58
2022/07/02 01:39:41;;;;;;;;;;;;;;;12.13;100.00;102098.09;2614099;36;19951;-59
2022/07/02 01:42:10;;;;;;;;;;;;;;;12.20;100.00;102099.34;2615376;31;19971;-57
2022/07/02 01:44:39;;;;;;;;;;;;;;;12.21;100.00;102094.81;2614903;36;19955;-58
2022/07/02 01:47:08;;;;;;;;;;;;;;;12.17;100.00;102104.97;2614673;31;19950;-56
2022/07/02 01:49:37;;;;;;;;;;;;;;;12.15;100.00;102101.53;2615132;36;20403;-57
2022/07/02 01:52:05;;;;;;;;;;;;;;;12.13;100.00;102108.03;2613940;36;19985;-57
2022/07/02 01:54:33;;;;;;;;;;;;;;;12.02;100.00;102101.59;2614518;36;19981;-58
2022/07/02 01:57:04;;;;;;;;;;;;;;;12.04;100.00;102098.78;2615124;36;19939;-58
2022/07/02 01:59:32;;;;;;;;;;;;;;;12.02;100.00;102100.75;2614697;36;19947;-58
2022/07/02 02:02:00;;;;;;;;;;;;;;;12.00;100.00;102094.56;2614132;36;19951;-57
2022/07/02 02:04:28;;;;;;;;;;;;;;;11.95;100.00;102099.47;2613416;36;19946;-54
2022/07/02 02:06:56;;;;;;;;;;;;;;;11.97;100.00;102105.59;2613699;36;19981;-58
2022/07/02 02:09:24;;;;;;;;;;;;;;;11.93;100.00;102096.91;2614101;36;20432;-57
2022/07/02 02:11:53;;;;;;;;;;;;;;;11.96;100.00;102102.06;2615325;31;19947;-58
2022/07/02 02:14:23;;;;;;;;;;;;;;;12.07;100.00;102101.25;2613600;36;19942;-58
2022/07/02 02:16:51;;;;;;;;;;;;;;;12.08;100.00;102105.66;2612786;36;19950;-58
2022/07/02 02:19:19;;;;;;;;;;;;;;;12.14;100.00;102105.19;2613085;36;20416;-61
2022/07/02 02:21:48;;;;;;;;;;;;;;;12.22;100.00;102110.91;2612224;36;20412;-57
2022/07/02 02:24:16;;;;;;;;;;;;;;;12.30;100.00;102112.16;2612625;36;19979;-59
2022/07/02 02:26:44;;;;;;;;;;;;;;;12.31;100.00;102106.63;2611272;36;19957;-54
2022/07/02 02:29:12;;;;;;;;;;;;;;;12.36;100.00;102108.97;2610668;36;19950;-57
2022/07/02 02:31:42;;;;;;;;;;;;;;;12.35;100.00;102107.25;2614136;31;19955;-57
2022/07/02 02:34:11;;;;;;;;;;;;;;;12.38;100.00;102098.91;2613597;31;19954;-58
2022/07/02 02:36:39;;;;;;;;;;;;;;;12.35;100.00;102109.94;2615400;36;20016;-56
2022/07/02 02:39:07;;;;;;;;;;;;;;;12.42;100.00;102106.66;2612191;36;19953;-57
2022/07/02 02:41:35;;;;;;;;;;;;;;;12.38;100.00;102101.63;2612270;36;19947;-53
2022/07/02 02:44:03;;;;;;;;;;;;;;;12.37;100.00;102095.38;2612148;36;19954;-57
2022/07/02 02:46:32;;;;;;;;;;;;;;;12.48;100.00;102102.63;2613103;36;19951;-56
2022/07/02 02:49:02;;;;;;;;;;;;;;;12.44;100.00;102099.31;2614253;36;19947;-58
2022/07/02 02:51:30;;;;;;;;;;;;;;;12.41;100.00;102088.75;2614141;36;19957;-57
2022/07/02 02:53:59;;;;;;;;;;;;;;;12.36;100.00;102095.47;2613506;36;19946;-57
2022/07/02 02:56:27;;;;;;;;;;;;;;;12.34;100.00;102094.75;2614246;36;20540;-56
2022/07/02 02:58:55;;;;;;;;;;;;;;;12.32;100.00;102102.09;2613196;36;19950;-58
2022/07/02 03:01:23;;;;;;;;;;;;;;;12.24;100.00;102105.38;2606360;36;19951;-56
2022/07/02 03:03:51;;;;;;;;;;;;;;;12.29;100.00;102107.72;2603383;36;19981;-54
2022/07/02 03:06:22;;;;;;;;;;;;;;;12.23;100.00;102109.03;2603877;36;19950;-55
2022/07/02 03:08:50;;;;;;;;;;;;;;;12.26;100.00;102109.69;2606320;36;19953;-58
2022/07/02 03:11:18;;;;;;;;;;;;;;;12.29;100.00;102115.81;2614141;36;20029;-57
2022/07/02 03:13:46;;;;;;;;;;;;;;;12.23;100.00;102111.75;2612368;36;19986;-58
2022/07/02 03:16:14;;;;;;;;;;;;;;;12.21;100.00;102101.06;2613912;36;20484;-58
2022/07/02 03:18:42;;;;;;;;;;;;;;;12.23;100.00;102109.94;2613639;36;19985;-56
2022/07/02 03:21:10;;;;;;;;;;;;;;;12.21;100.00;102111.00;2613613;36;19962;-57
2022/07/02 03:23:41;;;;;;;;;;;;;;;12.22;100.00;102110.00;2613746;36;20352;-58
2022/07/02 03:26:09;;;;;;;;;;;;;;;12.29;100.00;102113.13;2613389;36;19946;-56
2022/07/02 03:28:37;;;;;;;;;;;;;;;12.32;100.00;102118.28;2612749;36;19954;-57
2022/07/02 03:31:05;;;;;;;;;;;;;;;12.35;100.00;102118.94;2612967;36;19954;-56
2022/07/02 03:33:33;;;;;;;;;;;;;;;12.27;100.00;102121.34;2613201;36;19951;-61
2022/07/02 03:36:01;;;;;;;;;;;;;;;12.27;100.00;102116.78;2614011;36;19958;-58
2022/07/02 03:38:29;;;;;;;;;;;;;;;12.30;100.00;102125.66;2613427;31;20336;-58
2022/07/02 03:41:01;;;;;;;;;;;;;;;12.40;100.00;102137.47;2614137;36;19966;-58
2022/07/02 03:43:29;;;;;;;;;;;;;;;12.40;100.00;102138.31;2613267;36;19951;-57
2022/07/02 03:45:57;;;;;;;;;;;;;;;12.38;100.00;102124.09;2613853;36;19957;-57
2022/07/02 03:48:25;;;;;;;;;;;;;;;12.36;100.00;102136.84;2611114;36;19950;-54
2022/07/02 03:50:53;;;;;;;;;;;;;;;12.32;100.00;102131.78;2613983;31;19951;-60
2022/07/02 03:53:21;;;;;;;;;;;;;;;12.24;100.00;102124.28;2613668;36;20543;-54
2022/07/02 03:55:49;;;;;;;;;;;;;;;12.27;100.00;102122.19;2614685;36;19973;-60
2022/07/02 03:58:23;;;;;;;;;;;;;;;12.32;100.00;102121.84;2613670;36;19981;-54
2022/07/02 04:00:51;;;;;;;;;;;;;;;12.29;100.00;102118.53;2613594;36;19946;-58
2022/07/02 04:03:19;;;;;;;;;;;;;;;12.29;100.00;102119.38;2613149;36;19979;-58
2022/07/02 04:05:47;;;;;;;;;;;;;;;12.29;100.00;102123.91;2613368;31;19962;-57
2022/07/02 04:08:16;;;;;;;;;;;;;;;12.31;100.00;102130.06;2613391;36;20347;-57
2022/07/02 04:10:44;;;;;;;;;;;;;;;12.35;100.00;102128.84;2613579;36;19988;-58
2022/07/02 04:13:12;;;;;;;;;;;;;;;12.38;100.00;102128.63;2613335;36;19947;-53
2022/07/02 04:15:43;;;;;;;;;;;;;;;12.43;100.00;102129.13;2613816;36;19950;-57
2022/07/02 04:18:11;;;;;;;;;;;;;;;12.49;100.00;102131.38;2612074;36;19950;-57
2022/07/02 04:20:39;;;;;;;;;;;;;;;12.53;100.00;102132.84;2613229;36;19946;-57
2022/07/02 04:23:07;;;;;;;;;;;;;;;12.53;100.00;102126.56;2613485;36;19982;-54
2022/07/02 04:25:35;;;;;;;;;;;;;;;12.50;100.00;102133.09;2613241;36;19968;-56
2022/07/02 04:28:03;;;;;;;;;;;;;;;12.50;100.00;102133.09;2613787;36;19977;-58
2022/07/02 04:30:31;;;;;;;;;;;;;;;12.58;100.00;102130.66;2613691;31;19946;-54
2022/07/02 04:33:02;;;;;;;;;;;;;;;12.64;100.00;102123.91;2613267;36;19950;-57
2022/07/02 04:35:30;;;;;;;;;;;;;;;12.76;100.00;102122.97;2611985;36;19955;-58
2022/07/02 04:37:58;;;;;;;;;;;;;;;12.77;100.00;102129.25;2612151;36;19946;-55
2022/07/02 04:40:26;;;;;;;;;;;;;;;12.78;100.00;102136.38;2612887;36;19950;-59
2022/07/02 04:42:54;;;;;;;;;;;;;;;12.83;100.00;102128.75;2613864;36;19947;-55
2022/07/02 04:45:22;;;;;;;;;;;;;;;12.85;100.00;102137.59;2613639;36;20425;-56
2022/07/02 04:47:50;;;;;;;;;;;;;;;12.89;100.00;102133.66;2613141;36;20440;-56
2022/07/02 04:50:21;;;;;;;;;;;;;;;12.96;100.00;102134.91;2613425;36;19946;-56
2022/07/02 04:52:49;;;;;;;;;;;;;;;13.03;100.00;102135.31;2613392;36;19950;-55
2022/07/02 04:55:17;;;;;;;;;;;;;;;13.04;100.00;102133.47;2613105;36;20046;-53
2022/07/02 04:57:46;;;;;;;;;;;;;;;13.13;100.00;102122.78;2613523;36;20325;-59
2022/07/02 05:00:15;;;;;;;;;;;;;;;13.18;100.00;102117.00;2612722;36;20433;-59
2022/07/02 05:02:43;;;;;;;;;;;;;;;13.16;100.00;102127.06;2614116;31;20384;-58
2022/07/02 05:05:11;;;;;;;;;;;;;;;13.25;100.00;102125.47;2615321;36;20328;-56
2022/07/02 05:07:42;;;;;;;;;;;;;;;13.24;100.00;102130.03;2613316;36;19962;-57
2022/07/02 05:10:10;;;;;;;;;;;;;;;13.35;100.00;102128.34;2613718;36;19970;-58
2022/07/02 05:12:38;;;;;;;;;;;;;;;13.44;100.00;102136.59;2613443;36;19961;-58
2022/07/02 05:15:07;;;;;;;;;;;;;;;13.53;100.00;102135.00;2614271;36;19985;-60
2022/07/02 05:17:35;;;;;;;;;;;;;;;13.67;100.00;102134.69;2611327;36;19947;-58
2022/07/02 05:20:03;;;;;;;;;;;;;;;13.59;100.00;102141.72;2614219;36;19954;-58
2022/07/02 05:22:31;;;;;;;;;;;;;;;13.77;100.00;102133.97;2614218;36;19985;-57
2022/07/02 05:25:02;;;;;;;;;;;;;;;13.74;100.00;102139.63;2612098;36;19953;-58
2022/07/02 05:27:30;;;;;;;;;;;;;;;13.82;100.00;102132.63;2611863;36;19947;-57
2022/07/02 05:29:58;;;;;;;;;;;;;;;13.84;100.00;102140.59;2614612;36;20376;-58
2022/07/02 05:32:26;;;;;;;;;;;;;;;13.94;100.00;102136.16;2611679;36;19954;-57
2022/07/02 05:34:54;;;;;;;;;;;;;;;14.02;100.00;102130.94;2612258;36;19961;-57
2022/07/02 05:37:22;;;;;;;;;;;;;;;14.16;100.00;102128.94;2611814;36;19958;-57
2022/07/02 05:39:50;;;;;;;;;;;;;;;14.12;100.00;102132.88;2610454;36;19974;-59
2022/07/02 05:42:21;;;;;;;;;;;;;;;14.23;100.00;102146.38;2613037;36;19958;-58
2022/07/02 05:44:49;;;;;;;;;;;;;;;14.30;100.00;102131.34;2611888;36;19954;-59
2022/07/02 05:47:17;;;;;;;;;;;;;;;14.51;100.00;102139.47;2611354;36;19973;-60
2022/07/02 05:49:45;;;;;;;;;;;;;;;14.61;100.00;102136.91;2610953;36;19947;-54
2022/07/02 05:52:14;;;;;;;;;;;;;;;14.61;100.00;102150.44;2613732;31;19977;-57
2022/07/02 05:54:42;;;;;;;;;;;;;;;14.66;100.00;102140.09;2613426;36;19953;-56
2022/07/02 05:57:10;;;;;;;;;;;;;;;14.62;100.00;102145.88;2613508;36;20737;-58
2022/07/02 05:59:41;;;;;;;;;;;;;;;14.63;100.00;102148.44;2613901;36;19975;-58
2022/07/02 06:02:09;;;;;;;;;;;;;;;14.89;100.00;102151.63;2613961;36;19951;-55
2022/07/02 06:04:37;;;;;;;;;;;;;;;14.84;100.00;102155.72;2613609;36;20420;-56
2022/07/02 06:09:46;;;;;;;;;;;;;;;14.98;100.00;102149.97;2613732;36;19946;-58
2022/07/02 06:12:15;;;;;;;;;;;;;;;15.05;100.00;102156.59;2613571;36;19953;-57
2022/07/02 06:14:46;;;;;;;;;;;;;;;15.18;100.00;102158.22;2614045;36;19951;-57
2022/07/02 06:17:14;;;;;;;;;;;;;;;15.15;100.00;102162.06;2613855;36;19957;-58
2022/07/02 06:19:44;;;;;;;;;;;;;;;15.34;100.00;102158.59;2613247;36;19962;-58
2022/07/02 06:22:12;;;;;;;;;;;;;;;15.71;100.00;102160.75;2613616;31;20368;-58
2022/07/02 06:24:40;;;;;;;;;;;;;;;15.97;100.00;102160.25;2614418;36;20547;-58
2022/07/02 06:27:08;;;;;;;;;;;;;;;15.89;100.00;102160.13;2613747;32;19946;-57
2022/07/02 06:29:36;;;;;;;;;;;;;;;15.94;100.00;102169.56;2613793;36;19967;-59
2022/07/02 06:32:08;;;;;;;;;;;;;;;16.04;100.00;102164.13;2612545;36;19957;-58
2022/07/02 06:34:36;;;;;;;;;;;;;;;16.26;100.00;102157.59;2613765;36;20662;-59
2022/07/02 06:37:04;;;;;;;;;;;;;;;16.41;100.00;102158.00;2614496;36;20426;-58
2022/07/02 06:39:32;;;;;;;;;;;;;;;16.61;100.00;102160.75;2613063;36;19993;-58
2022/07/02 06:44:50;;;;;;;;;;;;;;;16.75;100.00;102159.44;2613900;36;19955;-60
2022/07/02 06:47:21;;;;;;;;;;;;;;;17.14;100.00;102154.81;2613546;36;19954;-57
2022/07/02 06:49:49;;;;;;;;;;;;;;;16.84;100.00;102163.16;2614316;36;19962;-60
2022/07/02 06:52:18;;;;;;;;;;;;;;;16.88;100.00;102164.63;2614275;36;19977;-55
2022/07/02 06:54:46;;;;;;;;;;;;;;;16.68;100.00;102153.75;2614395;36;19958;-59
2022/07/02 06:57:14;;;;;;;;;;;;;;;16.50;100.00;102166.31;2612593;36;20000;-59
2022/07/02 06:59:43;;;;;;;;;;;;;;;16.93;100.00;102167.72;2613003;36;20453;-58
2022/07/02 07:02:11;;;;;;;;;;;;;;;17.13;100.00;102169.41;2613371;36;19950;-56
2022/07/02 07:04:42;;;;;;;;;;;;;;;17.35;100.00;102172.78;2612751;36;20439;-58
2022/07/02 07:07:13;;;;;;;;;;;;;;;17.28;100.00;102166.22;2614188;36;19958;-57
2022/07/02 07:09:41;;;;;;;;;;;;;;;17.14;100.00;102162.97;2614233;36;19956;-53
2022/07/02 07:12:10;;;;;;;;;;;;;;;17.02;100.00;102166.88;2614165;36;19970;-57
2022/07/02 07:14:38;;;;;;;;;;;;;;;17.48;100.00;102169.75;2614350;31;19954;-57
2022/07/02 07:17:06;;;;;;;;;;;;;;;17.45;100.00;102173.63;2614364;36;20774;-54
2022/07/02 07:19:34;;;;;;;;;;;;;;;17.55;100.00;102178.16;2614357;36;19946;-58
2022/07/02 07:22:05;;;;;;;;;;;;;;;17.57;100.00;102178.88;2612556;36;19950;-56
2022/07/02 07:24:33;;;;;;;;;;;;;;;17.73;100.00;102170.06;2613447;36;19947;-59
2022/07/02 07:27:01;;;;;;;;;;;;;;;17.79;100.00;102169.44;2614374;36;20476;-55
2022/07/02 07:29:29;;;;;;;;;;;;;;;18.26;100.00;102171.19;2613765;31;19955;-57
2022/07/02 07:31:57;;;;;;;;;;;;;;;18.33;100.00;102166.81;2613609;36;19950;-59
2022/07/02 07:34:25;;;;;;;;;;;;;;;18.24;100.00;102174.09;2614551;36;19946;-57
2022/07/02 07:36:55;;;;;;;;;;;;;;;18.12;100.00;102173.41;2613274;36;19958;-58
2022/07/02 07:39:26;;;;;;;;;;;;;;;18.25;100.00;102172.19;2614683;36;19974;-57
2022/07/02 07:41:54;;;;;;;;;;;;;;;18.69;100.00;102175.84;2614782;36;20336;-58
2022/07/02 07:44:22;;;;;;;;;;;;;;;18.53;100.00;102172.97;2613336;36;19954;-58
2022/07/02 07:46:50;;;;;;;;;;;;;;;18.58;100.00;102170.66;2614093;36;19954;-57
2022/07/02 07:49:18;;;;;;;;;;;;;;;18.90;100.00;102170.09;2613437;36;19970;-58
2022/07/02 07:51:46;;;;;;;;;;;;;;;18.83;100.00;102174.44;2611555;36;19957;-56
2022/07/02 07:54:14;;;;;;;;;;;;;;;19.00;100.00;102175.44;2613182;36;19954;-56
2022/07/02 07:56:45;;;;;;;;;;;;;;;18.70;100.00;102171.25;2614305;36;20364;-56
2022/07/02 07:59:13;;;;;;;;;;;;;;;18.76;100.00;102172.47;2613595;36;19943;-57
2022/07/02 08:01:41;;;;;;;;;;;;;;;19.25;100.00;102161.94;2613504;36;19954;-57
2022/07/02 08:04:09;;;;;;;;;;;;;;;18.98;100.00;102162.97;2613167;36;19969;-56
2022/07/02 08:06:37;;;;;;;;;;;;;;;19.16;100.00;102158.31;2613346;36;19973;-56
2022/07/02 08:09:06;;;;;;;;;;;;;;;19.39;100.00;102161.34;2614315;36;20369;-57
2022/07/02 08:11:34;;;;;;;;;;;;;;;19.36;100.00;102158.06;2613627;36;19977;-57
2022/07/02 08:14:04;;;;;;;;;;;;;;;19.44;100.00;102158.13;2613726;36;19951;-58
2022/07/02 08:16:32;;;;;;;;;;;;;;;19.42;100.00;102162.91;2613591;36;20313;-60
2022/07/02 08:19:01;;;;;;;;;;;;;;;19.64;100.00;102155.13;2613939;36;19955;-62
2022/07/02 08:21:29;;;;;;;;;;;;;;;19.48;100.00;102156.78;2613089;36;19950;-60
2022/07/02 08:23:57;;;;;;;;;;;;;;;19.89;100.00;102153.38;2612589;36;20422;-57
2022/07/02 08:26:28;;;;;;;;;;;;;;;20.47;100.00;102159.81;2615136;31;20511;-57
2022/07/02 08:28:56;;;;;;;;;;;;;;;20.07;100.00;102150.53;2613196;36;19977;-56
2022/07/02 08:31:26;;;;;;;;;;;;;;;20.09;100.00;102146.59;2601242;31;19962;-58
2022/07/02 08:33:54;;;;;;;;;;;;;;;20.32;100.00;102140.50;2613629;36;19953;-54
2022/07/02 08:36:23;;;;;;;;;;;;;;;20.00;100.00;102147.59;2612908;31;19989;-59
2022/07/02 08:38:51;;;;;;;;;;;;;;;20.49;100.00;102146.81;2612812;36;20475;-57
2022/07/02 08:41:19;;;;;;;;;;;;;;;20.25;100.00;102148.50;2612103;36;19950;-61
2022/07/02 08:43:47;;;;;;;;;;;;;;;20.35;100.00;102144.78;2613102;36;19958;-57
2022/07/02 08:46:16;;;;;;;;;;;;;;;20.37;100.00;102135.34;2613320;36;20425;-59
2022/07/02 08:48:47;;;;;;;;;;;;;;;20.37;99.56;102148.19;2611426;36;19951;-55
2022/07/02 08:51:16;;;;;;;;;;;;;;;20.33;93.10;102144.06;2613820;36;19981;-58
2022/07/02 08:53:44;;;;;;;;;;;;;;;20.54;100.00;102143.56;2612622;36;19977;-57
2022/07/02 08:56:13;;;;;;;;;;;;;;;20.62;97.06;102143.56;2613301;36;20383;-59
2022/07/02 08:58:41;;;;;;;;;;;;;;;20.37;90.51;102146.28;2613437;36;19954;-57
2022/07/02 09:01:10;;;;;;;;;;;;;;;20.38;90.16;102144.44;2612109;36;19986;-58
2022/07/02 09:03:41;;;;;;;;;;;;;;;20.70;94.82;102145.47;2613844;31;20445;-59
2022/07/02 09:06:12;;;;;;;;;;;;;;;21.14;90.93;102132.25;2612893;36;20425;-57
2022/07/02 09:08:41;;;;;;;;;;;;;;;20.71;84.41;102131.63;2611786;36;19950;-57
2022/07/02 09:11:09;;;;;;;;;;;;;;;21.00;86.97;102125.59;2613403;31;19955;-57
2022/07/02 09:13:38;;;;;;;;;;;;;;;21.33;87.07;102131.00;2612488;36;19947;-59
2022/07/02 09:16:09;;;;;;;;;;;;;;;21.23;80.68;102129.47;2613737;36;19954;-58
2022/07/02 09:18:42;;;;;;;;;;;;;;;21.75;81.28;102123.47;2612641;36;19951;-58
2022/07/02 09:21:15;;;;;;;;;;;;;;;21.41;81.32;102118.31;2611519;36;19947;-59
2022/07/02 09:23:47;;;;;;;;;;;;;;;21.35;78.14;102128.94;2611734;36;19985;-60
2022/07/02 09:26:18;;;;;;;;;;;;;;;21.62;81.41;102124.03;2612616;36;19965;-59
2022/07/02 09:28:53;;;;;;;;;;;;;;;21.10;75.92;102116.34;2612690;36;20066;-55
2022/07/02 09:31:21;;;;;;;;;;;;;;;21.72;83.90;102112.03;2610754;36;19974;-54
2022/07/02 09:33:49;;;;;;;;;;;;;;;22.20;75.31;102115.47;2611890;36;19959;-56
2022/07/02 09:36:20;;;;;;;;;;;;;;;22.28;80.67;102111.84;2612046;36;19985;-57
2022/07/02 09:38:49;;;;;;;;;;;;;;;22.19;75.50;102113.78;2611942;36;19957;-57
2022/07/02 09:41:20;;;;;;;;;;;;;;;22.13;79.69;102109.00;2606510;31;20495;-57
2022/07/02 09:43:48;;;;;;;;;;;;;;;;;;2613678;36;20452;-56
2022/07/02 09:46:18;;;;;;;;;;;;;;;21.87;76.93;102110.22;2613457;36;19962;-57
2022/07/02 09:48:46;;;;;;;;;;;;;;;21.84;75.91;102111.44;2612668;36;19947;-58
2022/07/02 09:51:15;;;;;;;;;;;;;;;22.22;68.93;102118.91;2613187;36;19957;-59
2022/07/02 09:53:52;;;;;;;;;;;;;;;22.07;68.02;102115.22;2614438;36;19954;-58
2022/07/02 09:56:20;;;;;;;;;;;;;;;21.99;77.02;102106.00;2614762;36;19969;-57
2022/07/02 09:58:48;;;;;;;;;;;;;;;22.49;83.37;102105.69;2614376;36;20364;-57
2022/07/02 10:01:20;;;;;;;;;;;;;;;22.74;78.61;102109.88;2614757;36;20341;-57
2022/07/02 10:03:51;;;;;;;;;;;;;;;22.55;71.69;102108.53;2614978;36;20455;-57
2022/07/02 10:06:20;;;;;;;;;;;;;;;22.41;66.30;102106.63;2614951;36;19951;-60
2022/07/02 10:08:48;;;;;;;;;;;;;;;22.04;69.82;102111.81;2614690;31;19954;-58
2022/07/02 10:11:19;;;;;;;;;;;;;;;22.25;70.91;102107.56;2615202;36;20360;-60
2022/07/02 10:13:48;;;;;;;;;;;;;;;21.99;69.94;102097.78;2615164;36;20194;-59
2022/07/02 10:16:17;;;;;;;;;;;;;;;22.05;69.22;102101.69;2614367;36;20363;-58
2022/07/02 10:18:46;;;;;;;;;;;;;;;22.49;72.02;102103.78;2615164;36;19946;-59
2022/07/02 10:21:15;;;;;;;;;;;;;;;22.00;67.51;102104.16;2613769;36;19960;-57
2022/07/02 10:23:45;;;;;;;;;;;;;;;22.03;71.71;102101.88;2614684;36;19953;-59
2022/07/02 10:26:13;;;;;;;;;;;;;;;22.44;69.40;102099.88;2613716;36;20432;-61
2022/07/02 10:28:45;;;;;;;;;;;;;;;23.12;66.98;102086.22;2614393;36;19951;-57
2022/07/02 10:31:16;;;;;;;;;;;;;;;23.65;72.55;102081.41;2613761;36;20428;-58
2022/07/02 10:33:45;;;;;;;;;;;;;;;23.43;64.14;102097.81;2614961;36;19982;-58
2022/07/02 10:36:15;;;;;;;;;;;;;;;23.60;69.60;102090.22;2614774;36;19957;-59
2022/07/02 10:38:44;;;;;;;;;;;;;;;23.40;60.60;102089.97;2614474;36;20409;-58
2022/07/02 10:41:12;;;;;;;;;;;;;;;23.61;68.06;102072.69;2613983;31;19958;-57
2022/07/02 10:43:41;;;;;;;;;;;;;;;24.14;65.97;102077.94;2615286;36;20325;-52
2022/07/02 10:46:13;;;;;;;;;;;;;;;24.06;63.07;102067.06;2614814;31;19958;-58
2022/07/02 10:48:49;;;;;;;;;;;;;;;23.64;60.37;102079.69;2613524;31;20453;-59
2022/07/02 10:51:19;;;;;;;;;;;;;;;23.29;60.87;102075.88;2614118;31;20456;-58
2022/07/02 10:53:50;;;;;;;;;;;;;;;23.59;66.50;102068.44;2613717;36;19950;-59
2022/07/02 10:56:18;;;;;;;;;;;;;;;23.17;62.08;102072.75;2614688;36;20404;-60
2022/07/02 10:58:46;;;;;;;;;;;;;;;23.71;62.82;102075.13;2614909;36;20344;-59
2022/07/02 11:01:18;;;;;;;;;;;;;;;23.50;59.99;102061.31;2614109;36;20739;-60
2022/07/02 11:03:53;;;;;;;;;;;;;;;23.79;61.14;102061.25;2614738;36;19946;-56
2022/07/02 11:06:22;;;;;;;;;;;;;;;24.25;59.05;102053.72;2614671;36;19955;-58
2022/07/02 11:08:54;;;;;;;;;;;;;;;23.78;65.00;102056.81;2614951;36;20002;-59
2022/07/02 11:11:24;;;;;;;;;;;;;;;24.71;63.19;102055.16;2614150;36;19970;-58
2022/07/02 11:13:56;;;;;;;;;;;;;;;25.06;64.89;102056.00;2614694;36;19950;-58
2022/07/02 11:16:29;;;;;;;;;;;;;;;24.76;63.76;102050.72;2614366;36;20057;-58
2022/07/02 11:18:59;;;;;;;;;;;;;;;24.39;59.84;102051.91;2612428;36;20030;-57
2022/07/02 11:21:27;;;;;;;;;;;;;;;24.56;65.28;102056.06;2612619;36;19951;-56
2022/07/02 11:23:56;;;;;;;;;;;;;;;25.12;62.37;102049.66;2612292;36;20401;-57
2022/07/02 11:26:26;;;;;;;;;;;;;;;24.92;61.07;102046.78;2612298;31;19954;-58
2022/07/02 11:28:54;;;;;;;;;;;;;;;24.00;64.15;102048.59;2612124;36;19954;-59
2022/07/02 11:31:25;;;;;;;;;;;;;;;23.44;65.30;102041.84;2614029;36;20511;-58
2022/07/02 11:33:57;;;;;;;;;;;;;;;23.46;66.50;102049.03;2613344;36;19962;-58
2022/07/02 11:36:26;;;;;;;;;;;;;;;22.77;70.45;102050.19;2613217;36;19951;-56
2022/07/02 11:38:54;;;;;;;;;;;;;;;23.06;67.92;102050.19;2611074;36;19954;-57
2022/07/02 11:41:23;;;;;;;;;;;;;;;22.83;66.12;102046.69;2614366;36;19950;-57
2022/07/02 11:43:53;;;;;;;;;;;;;;;23.38;66.42;102042.63;2612953;36;19950;-57
2022/07/02 11:46:22;;;;;;;;;;;;;;;23.40;69.33;102043.25;2613632;36;19974;-60
2022/07/02 11:48:51;;;;;;;;;;;;;;;23.39;74.19;102044.28;2609791;36;19954;-54
2022/07/02 11:51:22;;;;;;;;;;;;;;;23.62;74.59;102044.16;2614426;36;19950;-58
2022/07/02 11:53:59;;;;;;;;;;;;;;;24.28;71.93;102042.31;2611690;36;19951;-57
2022/07/02 11:56:28;;;;;;;;;;;;;;;24.21;65.03;102036.72;2614053;36;20431;-57
2022/07/02 11:58:57;;;;;;;;;;;;;;;23.40;68.18;102035.03;2612569;36;19973;-55
2022/07/02 12:01:26;;;;;;;;;;;;;;;23.08;73.22;102028.88;2612706;31;20026;-58
2022/07/02 12:03:55;;;;;;;;;;;;;;;23.34;77.39;102034.94;2611866;36;19951;-55
2022/07/02 12:06:26;;;;;;;;;;;;;;;24.64;77.65;102033.06;2613614;36;19991;-57
2022/07/02 12:08:55;;;;;;;;;;;;;;;24.40;71.52;102029.69;2611618;36;19946;-58
2022/07/02 12:11:23;;;;;;;;;;;;;;;25.03;69.02;102039.88;2614049;36;19982;-59
2022/07/02 12:13:52;;;;;;;;;;;;;;;24.39;69.36;102033.47;2612647;31;19938;-62
2022/07/02 12:16:24;;;;;;;;;;;;;;;23.90;68.89;102015.94;2611498;36;19950;-58
2022/07/02 12:18:58;;;;;;;;;;;;;;;24.33;72.51;102014.19;2612633;36;19951;-57
2022/07/02 12:21:35;;;;;;;;;;;;;;;24.45;70.82;102023.59;2612240;36;19954;-58
2022/07/02 12:24:04;;;;;;;;;;;;;;;23.95;73.88;102009.84;2611071;36;19954;-62
2022/07/02 12:26:33;;;;;;;;;;;;;;;23.76;82.79;102006.69;2612219;36;19973;-55
2022/07/02 12:31:47;;;;;;;;;;;;;;;24.52;70.54;101999.72;2614309;36;20064;-58
2022/07/02 12:34:15;;;;;;;;;;;;;;;24.90;70.35;102001.25;2611904;36;19959;-60
2022/07/02 12:36:54;;;;;;;;;;;;;;;24.57;66.82;101990.84;2613109;36;19954;-57
2022/07/02 12:39:39;;;;;;;;;;;;;;;24.53;64.85;101992.28;2614566;36;20344;-57
2022/07/02 12:42:18;;;;;;;;;;;;;;;24.53;71.03;101990.41;2606572;36;19946;-61
2022/07/02 12:44:53;;;;;;;;;;;;;;;24.01;67.70;101989.78;2613794;36;19959;-56
2022/07/02 12:47:28;;;;;;;;;;;;;;;23.32;70.64;101987.56;2613150;36;19951;-57
2022/07/02 12:49:57;;;;;;;;;;;;;;;23.32;68.46;101995.81;2614569;36;20356;-63
2022/07/02 12:52:30;;;;;;;;;;;;;;;24.47;73.87;101989.31;2613994;36;19951;-58